Home > Products > Valid Products > TAF

000
FTUS44 KMAF 282300
TAFMAF
TAF
KMAF 282320Z 2900/2924 18011KT P6SM SKC
     FM291700 32011KT P6SM SKC=



000
FTUS44 KMAF 281700
TAFMAF
TAF
KMAF 281725Z 2818/2918 24012KT P6SM SKC
     FM290100 20007KT P6SM SKC=



000
FTUS44 KMAF 281700
TAFMAF
TAF
KMAF 281725Z 2818/2918 24012KT P6SM SKC
     FM290100 20007KT P6SM SKC=



000
FTUS44 KMAF 281100
TAFMAF
TAF
KMAF 281121Z 2812/2912 20006KT P6SM SKC
     FM281600 26011KT P6SM SKC=



000
FTUS44 KMAF 281100
TAFMAF
TAF
KMAF 281121Z 2812/2912 20006KT P6SM SKC
     FM281600 26011KT P6SM SKC=



000
FTUS44 KMAF 280500
TAFMAF
TAF
KMAF 280528Z 2806/2906 18011KT P6SM SKC
     FM281900 27011KT P6SM SKC=



000
FTUS44 KMAF 280500
TAFMAF
TAF
KMAF 280528Z 2806/2906 18011KT P6SM SKC
     FM281900 27011KT P6SM SKC=



000
FTUS44 KMAF 272300
TAFMAF
TAF
KMAF 272320Z 2800/2824 19008KT P6SM SKC
     FM281900 27013KT P6SM SKC=



000
FTUS44 KMAF 271700
TAFMAF
TAF
KMAF 271720Z 2718/2818 22011KT P6SM SKC=



000
FTUS44 KMAF 271100
TAFMAF
TAF
KMAF 271120Z 2712/2812 22007KT P6SM FEW250=



000
FTUS44 KMAF 270500
TAFMAF
TAF
KMAF 270520Z 2706/2806 22007KT P6SM SKC=



000
FTUS44 KMAF 270500
TAFMAF
TAF
KMAF 270520Z 2706/2806 22007KT P6SM SKC=



000
FTUS44 KMAF 262300
TAFMAF
TAF
KMAF 262320Z 2700/2724 24011KT P6SM SKC=



000
FTUS44 KMAF 262300
TAFMAF
TAF
KMAF 262320Z 2700/2724 24011KT P6SM SKC=



000
FTUS44 KMAF 262000 AAB
TAFMAF
TAF AMD
KMAF 262036Z 2621/2718 34010KT P6SM SKC
     FM270300 23008KT P6SM SKC=



000
FTUS44 KMAF 261900 AAA
TAFMAF
TAF AMD
KMAF 261901Z 2619/2718 36007KT P6SM FEW250
     FM270100 VRB03KT P6SM SKC
     FM271300 23008KT P6SM SKC=



000
FTUS44 KMAF 261700
TAFMAF
TAF
KMAF 261720Z 2618/2718 36010G20KT P6SM FEW250
     FM270100 22004KT P6SM SKC
     FM271300 23008KT P6SM SKC=



000
FTUS44 KMAF 261600 AAC
TAFMAF
TAF AMD
KMAF 261623Z 2616/2712 36010G20KT P6SM SKC
     FM270100 22004KT P6SM SKC=



000
FTUS44 KMAF 261600 AAC
TAFMAF
TAF AMD
KMAF 261623Z 2616/2712 36010G20KT P6SM SKC
     FM270100 22004KT P6SM SKC=



000
FTUS44 KMAF 261500 AAB
TAFMAF
TAF AMD
KMAF 261540Z 2616/2712 36010KT P6SM FEW250
     FM270100 22004KT P6SM SKC=



000
FTUS44 KMAF 261300 AAA
TAFMAF
TAF AMD
KMAF 261314Z 2613/2712 34007KT P6SM FEW250
     FM270100 VRB03KT P6SM SKC=



000
FTUS44 KMAF 261300 AAA
TAFMAF
TAF AMD
KMAF 261314Z 2613/2712 34007KT P6SM FEW250
     FM270100 VRB03KT P6SM SKC=



000
FTUS44 KMAF 261100
TAFMAF
TAF
KMAF 261120Z 2612/2712 01014G22KT P6SM SCT200
      TEMPO 2612/2614 BKN035
     FM261600 01010KT P6SM FEW200
     FM270200 22005KT P6SM FEW200=



000
FTUS44 KMAF 260900 AAA
TAFMAF
TAF AMD
KMAF 260905Z 2609/2706 01010KT P6SM SCT200
     FM270200 16005KT P6SM FEW200=



000
FTUS44 KMAF 260500
TAFMAF
TAF
KMAF 260520Z 2606/2706 01030G40KT 3SM BLDU BKN150
     FM260700 01020G30KT P6SM SCT200
     FM261200 36012G20KT P6SM SCT200=



    US Dept of Commerce
    National Oceanic and Atmospheric Administration
    National Weather Service
    1325 East West Highway
    Silver Spring, MD 20910
    Page Author: NWS Internet Services Team
Disclaimer
Information Quality
Credits
Glossary
Privacy Policy
Freedom of Information Act (FOIA)
About Us
Career Opportunities